createdAt,value
2023-03-10T00:00:46.638Z,12.25
2023-03-10T00:05:49.105Z,12.11
2023-03-10T00:10:51.192Z,11.52
2023-03-10T00:15:53.277Z,11.34
2023-03-10T00:20:55.955Z,11.39
2023-03-10T00:26:01.230Z,11.43
2023-03-10T00:31:06.932Z,11.37
2023-03-10T00:36:14.039Z,11.55
2023-03-10T00:41:20.472Z,11.89
2023-03-10T00:46:28.206Z,11.49
2023-03-10T00:51:30.362Z,11.89
2023-03-10T00:56:32.411Z,11.48
2023-03-10T01:01:39.704Z,10.90
2023-03-10T01:06:44.553Z,11.22
2023-03-10T01:11:46.743Z,11.06
2023-03-10T01:16:49.366Z,10.75
2023-03-10T01:21:51.898Z,10.80
2023-03-10T01:26:54.321Z,10.64
2023-03-10T01:31:56.895Z,10.55
2023-03-10T01:36:59.918Z,10.63
2023-03-10T01:42:02.494Z,10.60
2023-03-10T01:47:05.114Z,10.63
2023-03-10T01:52:12.646Z,10.76
2023-03-10T01:57:16.908Z,10.70
2023-03-10T02:02:20.135Z,10.74
2023-03-10T02:07:29.057Z,10.86
2023-03-10T02:12:31.681Z,11.07
2023-03-10T02:17:35.522Z,11.02
2023-03-10T02:22:40.130Z,10.88
2023-03-10T02:27:44.821Z,10.81
2023-03-10T02:32:53.115Z,10.77
2023-03-10T02:37:58.023Z,10.69
2023-03-10T02:43:11.580Z,10.62
2023-03-10T02:48:28.366Z,10.75
2023-03-10T02:53:31.429Z,10.46
2023-03-10T02:58:34.367Z,10.41
2023-03-10T03:03:38.522Z,10.12
2023-03-10T03:08:42.177Z,10.08
2023-03-10T03:13:48.283Z,10.04
2023-03-10T03:18:50.942Z,10.15
2023-03-10T03:23:56.035Z,10.07
2023-03-10T03:28:59.212Z,10.13
2023-03-10T03:34:06.927Z,9.97
2023-03-10T03:39:09.633Z,9.85
2023-03-10T03:44:14.778Z,9.94
2023-03-10T03:49:17.269Z,10.00
2023-03-10T03:54:31.013Z,9.99
2023-03-10T03:59:36.713Z,9.89
2023-03-10T04:04:39.253Z,9.78
2023-03-10T04:09:43.053Z,10.08
2023-03-10T04:14:45.986Z,10.14
2023-03-10T04:20:00.636Z,10.17
2023-03-10T04:25:10.040Z,10.00
2023-03-10T04:30:14.581Z,10.04
2023-03-10T04:35:20.835Z,10.06
2023-03-10T04:40:23.805Z,10.07
2023-03-10T04:45:27.780Z,10.32
2023-03-10T04:50:30.502Z,10.59
2023-03-10T04:55:33.483Z,10.73
2023-03-10T05:00:47.433Z,10.62
2023-03-10T05:05:56.623Z,10.52
2023-03-10T05:10:59.370Z,10.51
2023-03-10T05:16:02.086Z,10.53
2023-03-10T05:21:05.436Z,10.66
2023-03-10T05:26:12.190Z,10.58
2023-03-10T05:31:16.743Z,10.62
2023-03-10T05:36:22.609Z,10.31
2023-03-10T05:41:26.135Z,10.09
2023-03-10T05:46:32.156Z,10.12
2023-03-10T05:51:35.377Z,10.01
2023-03-10T05:56:39.264Z,10.22
2023-03-10T06:01:42.643Z,10.26
2023-03-10T06:06:45.148Z,10.31
2023-03-10T06:11:47.633Z,10.48
2023-03-10T06:16:53.045Z,10.35
2023-03-10T06:21:55.553Z,9.90
2023-03-10T06:26:58.058Z,9.63
2023-03-10T06:32:00.692Z,9.60
2023-03-10T06:37:03.235Z,9.46
2023-03-10T06:42:06.731Z,9.23
2023-03-10T06:47:09.196Z,9.21
2023-03-10T06:52:11.737Z,9.34
2023-03-10T06:57:14.421Z,9.71
2023-03-10T07:02:16.900Z,9.92
2023-03-10T07:07:19.330Z,9.94
2023-03-10T07:12:22.434Z,10.14
2023-03-10T07:17:25.374Z,10.07
2023-03-10T07:22:27.780Z,10.32
2023-03-10T07:27:30.513Z,10.48
2023-03-10T07:32:33.191Z,10.60
2023-03-10T07:37:39.205Z,11.11
2023-03-10T07:42:43.748Z,11.22
2023-03-10T07:47:46.699Z,10.77
2023-03-10T07:52:49.252Z,10.52
2023-03-10T07:57:51.753Z,10.73
2023-03-10T08:02:54.354Z,10.24
2023-03-10T08:07:57.290Z,9.96
2023-03-10T08:12:59.823Z,9.85
2023-03-10T08:18:05.285Z,9.73
2023-03-10T08:23:07.791Z,9.69
2023-03-10T08:28:10.336Z,9.83
2023-03-10T08:33:13.325Z,9.92
2023-03-10T08:38:18.775Z,10.13
2023-03-10T08:43:21.375Z,10.39
2023-03-10T08:48:23.922Z,13.68
2023-03-10T08:53:26.366Z,13.33
2023-03-10T08:58:28.521Z,11.16
2023-03-10T09:03:31.890Z,16.11
2023-03-10T09:08:35.293Z,18.76
2023-03-10T09:13:38.369Z,18.13
2023-03-10T09:18:40.788Z,18.38
2023-03-10T09:23:46.474Z,16.05
2023-03-10T09:28:51.161Z,15.21
2023-03-10T09:33:53.354Z,15.37
2023-03-10T09:38:57.581Z,13.62
2023-03-10T09:44:26.536Z,13.22
2023-03-10T09:49:38.755Z,13.38
2023-03-10T09:55:06.456Z,13.05
2023-03-10T10:00:21.954Z,13.15
2023-03-10T10:05:33.682Z,13.80
2023-03-10T10:10:39.433Z,13.49
2023-03-10T10:15:50.025Z,12.90
2023-03-10T10:21:05.801Z,12.34
2023-03-10T10:26:24.068Z,12.22
2023-03-10T10:31:34.964Z,12.44
2023-03-10T10:36:51.970Z,12.45
2023-03-10T10:41:54.565Z,12.12
2023-03-10T10:46:57.767Z,12.21
2023-03-10T10:52:19.205Z,12.38
2023-03-10T10:57:27.255Z,12.60
2023-03-10T11:02:34.283Z,12.43
2023-03-10T11:07:36.525Z,12.63
2023-03-10T11:12:57.022Z,12.40
2023-03-10T11:18:27.792Z,12.77
2023-03-10T11:23:42.459Z,13.29
2023-03-10T11:29:32.202Z,12.65
2023-03-10T11:34:49.289Z,12.57
2023-03-10T11:40:30.874Z,12.84
2023-03-10T11:45:53.660Z,12.81
2023-03-10T11:51:02.649Z,12.82
2023-03-10T11:56:09.507Z,12.36
2023-03-10T12:01:23.230Z,12.25
2023-03-10T12:06:37.154Z,12.18
2023-03-10T12:11:39.774Z,11.97
2023-03-10T12:16:43.693Z,13.15
2023-03-10T12:21:47.773Z,12.75
2023-03-10T12:27:03.867Z,12.72
2023-03-10T12:32:39.818Z,12.42
2023-03-10T12:37:42.045Z,12.32
2023-03-10T12:42:45.781Z,12.39
2023-03-10T12:48:13.722Z,12.70
2023-03-10T12:53:34.076Z,12.81
2023-03-10T12:58:40.341Z,12.93
2023-03-10T13:03:52.526Z,11.91
2023-03-10T13:09:26.379Z,11.75
2023-03-10T13:14:39.886Z,11.89
2023-03-10T13:19:42.233Z,11.75
2023-03-10T13:24:44.621Z,11.83
2023-03-10T13:30:10.526Z,12.18
2023-03-10T13:35:29.746Z,11.26
2023-03-10T13:40:31.902Z,11.27
2023-03-10T13:45:34.537Z,11.33
2023-03-10T13:50:36.743Z,11.85
2023-03-10T13:55:40.733Z,11.84
2023-03-10T14:00:47.450Z,11.37
2023-03-10T14:05:50.058Z,11.33
2023-03-10T14:10:52.518Z,11.45
2023-03-10T14:15:55.887Z,11.16
2023-03-10T14:20:58.134Z,11.32
2023-03-10T14:26:00.296Z,11.12
2023-03-10T14:31:04.724Z,10.93
2023-03-10T14:36:12.153Z,10.98
2023-03-10T14:41:15.224Z,10.90
2023-03-10T14:46:18.275Z,10.97
2023-03-10T14:51:34.637Z,10.98
2023-03-10T14:56:37.978Z,10.75
2023-03-10T15:01:40.979Z,11.02
2023-03-10T15:06:44.716Z,10.67
2023-03-10T15:11:47.373Z,10.86
2023-03-10T15:16:50.029Z,10.82
2023-03-10T15:21:52.655Z,10.12
2023-03-10T15:26:55.090Z,10.14
2023-03-10T15:31:58.351Z,9.83
2023-03-10T15:37:01.180Z,9.95
2023-03-10T15:42:03.884Z,9.89
2023-03-10T15:47:06.636Z,10.23
2023-03-10T15:52:09.169Z,9.92
2023-03-10T15:57:11.683Z,10.05
2023-03-10T16:02:15.393Z,10.05
2023-03-10T16:07:17.952Z,9.77
2023-03-10T16:12:22.425Z,9.78
2023-03-10T16:17:25.072Z,9.81
2023-03-10T16:22:27.891Z,9.87
2023-03-10T16:27:30.288Z,9.93
2023-03-10T16:32:33.832Z,9.67
2023-03-10T16:37:36.323Z,9.34
2023-03-10T16:42:39.039Z,8.76
2023-03-10T16:47:44.080Z,8.53
2023-03-10T16:52:47.040Z,8.61
2023-03-10T16:57:50.003Z,8.47
2023-03-10T17:02:52.515Z,8.33
2023-03-10T17:08:02.333Z,8.41
2023-03-10T17:13:04.740Z,8.58
2023-03-10T17:18:07.531Z,8.56
2023-03-10T17:23:09.951Z,8.20
2023-03-10T17:28:12.809Z,8.13
2023-03-10T17:33:15.421Z,8.24
2023-03-10T17:38:18.038Z,8.15
2023-03-10T17:43:33.285Z,8.38
2023-03-10T17:48:36.850Z,8.03
2023-03-10T17:53:39.300Z,8.04
2023-03-10T17:58:43.432Z,8.33
2023-03-10T18:03:48.320Z,8.35
2023-03-10T18:08:52.463Z,8.29
2023-03-10T18:13:55.811Z,8.36
2023-03-10T18:18:59.319Z,8.26
2023-03-10T18:24:01.731Z,8.52
2023-03-10T18:29:04.692Z,8.29
2023-03-10T18:34:07.266Z,7.97
2023-03-10T18:39:11.358Z,8.19
2023-03-10T18:44:14.226Z,8.03
2023-03-10T18:49:16.641Z,7.75
2023-03-10T18:54:19.008Z,6.95
2023-03-10T18:59:21.110Z,6.96
2023-03-10T19:04:23.111Z,6.83
2023-03-10T19:09:25.137Z,6.82
2023-03-10T19:14:27.250Z,6.74
2023-03-10T19:19:29.380Z,6.84
2023-03-10T19:24:31.395Z,7.08
2023-03-10T19:29:33.508Z,7.36
2023-03-10T19:34:36.041Z,7.02
2023-03-10T19:39:38.069Z,7.30
2023-03-10T19:44:40.485Z,7.78
2023-03-10T19:49:42.978Z,7.28
2023-03-10T19:54:45.248Z,6.98
2023-03-10T19:59:47.357Z,7.12
2023-03-10T20:04:50.702Z,6.89
2023-03-10T20:09:52.716Z,6.42
2023-03-10T20:14:58.713Z,6.35
2023-03-10T20:20:00.815Z,6.23
2023-03-10T20:25:03.079Z,6.46
2023-03-10T20:30:16.082Z,6.10
2023-03-10T20:35:19.035Z,6.29
2023-03-10T20:40:24.220Z,6.54
2023-03-10T20:45:27.681Z,6.73
2023-03-10T20:50:29.905Z,6.21
2023-03-10T20:55:32.259Z,5.52
2023-03-10T21:00:34.542Z,5.15
2023-03-10T21:05:36.753Z,5.02
2023-03-10T21:10:38.933Z,5.11
2023-03-10T21:15:41.407Z,5.13
2023-03-10T21:20:43.883Z,5.01
2023-03-10T21:25:46.485Z,5.27
2023-03-10T21:30:48.613Z,5.14
2023-03-10T21:35:50.760Z,5.11
2023-03-10T21:40:52.858Z,5.81
2023-03-10T21:45:54.882Z,5.96
2023-03-10T21:50:56.894Z,6.05
2023-03-10T21:56:00.669Z,5.83
2023-03-10T22:01:07.679Z,5.71
2023-03-10T22:06:10.328Z,5.91
2023-03-10T22:11:13.217Z,5.51
2023-03-10T22:16:18.076Z,5.34
2023-03-10T22:21:20.254Z,6.03
2023-03-10T22:26:22.520Z,6.47
2023-03-10T22:31:24.822Z,6.31
2023-03-10T22:36:26.975Z,5.94
2023-03-10T22:41:29.153Z,5.67
2023-03-10T22:46:32.514Z,5.53
2023-03-10T22:51:34.632Z,5.71
2023-03-10T22:56:36.651Z,5.41
2023-03-10T23:01:39.405Z,5.56
2023-03-10T23:06:41.459Z,5.26
2023-03-10T23:11:43.827Z,5.40
2023-03-10T23:16:46.043Z,5.42
2023-03-10T23:21:48.191Z,5.51
2023-03-10T23:26:50.422Z,5.44
2023-03-10T23:31:52.852Z,5.32
2023-03-10T23:36:57.413Z,5.42
2023-03-10T23:41:59.438Z,5.19
2023-03-10T23:47:01.492Z,4.93
2023-03-10T23:52:03.762Z,4.91
2023-03-10T23:57:05.871Z,4.74
